TOM4498 LDZA-VTSP
Flight info
| Callsign | TOM4498 |
|---|---|
| Flight time | N/A |
| Altitude | 35000 |
| Route | MOSAV DCT TUVAR DCT DIRER DCT BULEN L744 UDROS UM859 BIMVO/N0485F370 UM859 KARDE UN644 ROLIN N644 LAGAS M747 SULEL N449 DUKAN B449 RANAH L750 ZB G201 BINDO/N0494F390 L750 MERUN L333 JJP J1 KKJ L759 SATVA SATVA1C |
| Aircraft | B789/H-SDE1E2E3FGHIJ2J3J4J5M1RWXY/LB1D1 |
Departure
| Time | 2026-04-30 14:39 |
|---|---|
| Airport | Zagreb Franjo Tuđman International Airport (LDZA) |
Arrival
| Time | N/A |
|---|---|
| Airport | Phuket International Airport (VTSP) |
| Time | Latitude | Longitude | Altitude | Speed | Heading |
|---|---|---|---|---|---|
| 2026-04-30 14:20 | 45.74222 | 16.07853 | 367 ft | 0 kts | 139° |
| 2026-04-30 14:31 | 45.74250 | 16.07827 | 362 ft | 4 kts | 165° |
| 2026-04-30 14:31 | 45.74301 | 16.07836 | 366 ft | 5 kts | 213° |
| 2026-04-30 14:31 | 45.74317 | 16.07853 | 368 ft | 0 kts | 227° |
| 2026-04-30 14:33 | 45.74253 | 16.07756 | 368 ft | 12 kts | 227° |
| 2026-04-30 14:33 | 45.74186 | 16.07653 | 367 ft | 17 kts | 226° |
| 2026-04-30 14:34 | 45.74105 | 16.07533 | 366 ft | 16 kts | 226° |
| 2026-04-30 14:34 | 45.74073 | 16.07401 | 362 ft | 14 kts | 299° |
| 2026-04-30 14:34 | 45.74142 | 16.07303 | 367 ft | 14 kts | 316° |
| 2026-04-30 14:34 | 45.74208 | 16.07209 | 366 ft | 12 kts | 302° |
| 2026-04-30 14:35 | 45.74135 | 16.07028 | 365 ft | 16 kts | 226° |
| 2026-04-30 14:35 | 45.74043 | 16.06889 | 364 ft | 22 kts | 227° |
| 2026-04-30 14:35 | 45.73928 | 16.06718 | 367 ft | 26 kts | 226° |
| 2026-04-30 14:36 | 45.73804 | 16.06525 | 369 ft | 25 kts | 226° |
| 2026-04-30 14:36 | 45.73689 | 16.06351 | 368 ft | 23 kts | 226° |
| 2026-04-30 14:36 | 45.73583 | 16.06191 | 369 ft | 22 kts | 226° |
| 2026-04-30 14:36 | 45.73477 | 16.06033 | 367 ft | 22 kts | 226° |
| 2026-04-30 14:37 | 45.73371 | 16.05874 | 367 ft | 22 kts | 226° |
| 2026-04-30 14:37 | 45.73273 | 16.05721 | 368 ft | 20 kts | 228° |
| 2026-04-30 14:37 | 45.73183 | 16.05582 | 366 ft | 18 kts | 226° |
| 2026-04-30 14:37 | 45.73111 | 16.05458 | 366 ft | 15 kts | 243° |
| 2026-04-30 14:38 | 45.73112 | 16.05325 | 368 ft | 12 kts | 301° |
| 2026-04-30 14:38 | 45.73163 | 16.05254 | 375 ft | 10 kts | 321° |
| 2026-04-30 14:38 | 45.73219 | 16.05255 | 372 ft | 8 kts | 34° |
| 2026-04-30 14:38 | 45.73365 | 16.05468 | 369 ft | 66 kts | 47° |
| 2026-04-30 14:39 | 45.73848 | 16.06203 | 371 ft | 135 kts | 46° |
| 2026-04-30 14:39 | 45.74629 | 16.07381 | 424 ft | 184 kts | 42° |
| 2026-04-30 14:39 | 45.75395 | 16.08809 | 1136 ft | 182 kts | 63° |
| 2026-04-30 14:40 | 45.75566 | 16.12630 | 2121 ft | 212 kts | 85° |
| 2026-04-30 14:40 | 45.75495 | 16.14851 | 2593 ft | 228 kts | 98° |
| 2026-04-30 14:40 | 45.75193 | 16.17107 | 3287 ft | 237 kts | 101° |
| 2026-04-30 14:40 | 45.74879 | 16.19452 | 3975 ft | 252 kts | 101° |
| 2026-04-30 14:41 | 45.74534 | 16.22034 | 4696 ft | 263 kts | 101° |
| 2026-04-30 14:41 | 45.74182 | 16.24637 | 5406 ft | 269 kts | 101° |
| 2026-04-30 14:41 | 45.73829 | 16.27246 | 6105 ft | 272 kts | 101° |
| 2026-04-30 14:41 | 45.73403 | 16.29913 | 6627 ft | 282 kts | 112° |
| 2026-04-30 14:42 | 45.72246 | 16.32174 | 6676 ft | 283 kts | 137° |
| 2026-04-30 14:42 | 45.70830 | 16.34052 | 6934 ft | 268 kts | 138° |
| 2026-04-30 14:42 | 45.69448 | 16.35837 | 7541 ft | 272 kts | 138° |
| 2026-04-30 14:42 | 45.68037 | 16.37704 | 8180 ft | 278 kts | 137° |
| 2026-04-30 14:43 | 45.66843 | 16.39872 | 8803 ft | 282 kts | 111° |
| 2026-04-30 14:43 | 45.66234 | 16.42576 | 9473 ft | 287 kts | 107° |
| 2026-04-30 14:43 | 45.65676 | 16.45332 | 10110 ft | 289 kts | 105° |
| 2026-04-30 14:43 | 45.65137 | 16.48090 | 10742 ft | 296 kts | 106° |
| 2026-04-30 14:44 | 45.64556 | 16.50967 | 11387 ft | 306 kts | 106° |
| 2026-04-30 14:44 | 45.63947 | 16.53935 | 12034 ft | 316 kts | 106° |
| 2026-04-30 14:44 | 45.63323 | 16.56989 | 12693 ft | 325 kts | 106° |
| 2026-04-30 14:44 | 45.62685 | 16.60124 | 13339 ft | 333 kts | 106° |
| 2026-04-30 14:45 | 45.62030 | 16.63339 | 14001 ft | 340 kts | 106° |
| 2026-04-30 14:45 | 45.61359 | 16.66619 | 14647 ft | 347 kts | 106° |
| 2026-04-30 14:45 | 45.60675 | 16.69957 | 15284 ft | 354 kts | 106° |
| 2026-04-30 14:45 | 45.59977 | 16.73359 | 15912 ft | 360 kts | 106° |
| 2026-04-30 14:46 | 45.59268 | 16.76809 | 16562 ft | 365 kts | 106° |
| 2026-04-30 14:46 | 45.58548 | 16.80306 | 17200 ft | 369 kts | 106° |
| 2026-04-30 14:46 | 45.57817 | 16.83846 | 17834 ft | 373 kts | 106° |
| 2026-04-30 14:46 | 45.57079 | 16.87417 | 18476 ft | 377 kts | 106° |
| 2026-04-30 14:47 | 45.56335 | 16.91013 | 19094 ft | 379 kts | 107° |
| 2026-04-30 14:47 | 45.55641 | 16.94657 | 19724 ft | 380 kts | 102° |
| 2026-04-30 14:47 | 45.54980 | 16.98314 | 20346 ft | 381 kts | 107° |
| 2026-04-30 14:47 | 45.54211 | 17.01893 | 20961 ft | 383 kts | 107° |
| 2026-04-30 14:48 | 45.53484 | 17.05551 | 21578 ft | 383 kts | 105° |
| 2026-04-30 14:48 | 45.52812 | 17.09229 | 22189 ft | 383 kts | 104° |
| 2026-04-30 14:48 | 45.52120 | 17.12910 | 22804 ft | 383 kts | 105° |
| 2026-04-30 14:48 | 45.51404 | 17.16562 | 23414 ft | 382 kts | 105° |
| 2026-04-30 14:49 | 45.50690 | 17.20213 | 24012 ft | 381 kts | 105° |
| 2026-04-30 14:49 | 45.49991 | 17.23844 | 24619 ft | 379 kts | 105° |
| 2026-04-30 14:49 | 45.49293 | 17.27467 | 25229 ft | 377 kts | 105° |
| 2026-04-30 14:49 | 45.48596 | 17.31053 | 25819 ft | 374 kts | 105° |
| 2026-04-30 14:50 | 45.47215 | 17.38133 | 26998 ft | 368 kts | 105° |
| 2026-04-30 14:50 | 45.46534 | 17.41626 | 27588 ft | 364 kts | 105° |
| 2026-04-30 14:51 | 45.45201 | 17.48433 | 28737 ft | 354 kts | 105° |
| 2026-04-30 14:51 | 45.44542 | 17.51786 | 29303 ft | 348 kts | 105° |
| 2026-04-30 14:51 | 45.43259 | 17.58310 | 30423 ft | 335 kts | 105° |
| 2026-04-30 14:52 | 45.42635 | 17.61468 | 30968 ft | 326 kts | 105° |
| 2026-04-30 14:52 | 45.41442 | 17.67501 | 31907 ft | 311 kts | 106° |
| 2026-04-30 14:52 | 45.40849 | 17.70496 | 31928 ft | 318 kts | 106° |
| 2026-04-30 14:53 | 45.39618 | 17.76687 | 31975 ft | 333 kts | 106° |
| 2026-04-30 14:53 | 45.38981 | 17.79886 | 32029 ft | 340 kts | 106° |
| 2026-04-30 14:54 | 45.37669 | 17.86457 | 32160 ft | 354 kts | 106° |
| 2026-04-30 14:54 | 45.36290 | 17.93341 | 32288 ft | 369 kts | 106° |
| 2026-04-30 14:55 | 45.34850 | 18.00505 | 32424 ft | 385 kts | 106° |
| 2026-04-30 14:55 | 45.34105 | 18.04201 | 32497 ft | 392 kts | 106° |
| 2026-04-30 14:55 | 45.32564 | 18.11819 | 32608 ft | 408 kts | 106° |
| 2026-04-30 14:56 | 45.30964 | 18.19706 | 32712 ft | 423 kts | 106° |
| 2026-04-30 14:56 | 45.29312 | 18.27812 | 32828 ft | 437 kts | 106° |
| 2026-04-30 14:57 | 45.28455 | 18.32003 | 32874 ft | 444 kts | 106° |
| 2026-04-30 14:57 | 45.26703 | 18.40548 | 32956 ft | 457 kts | 106° |
| 2026-04-30 14:58 | 45.24895 | 18.49328 | 33035 ft | 469 kts | 106° |
| 2026-04-30 14:58 | 45.22085 | 18.62896 | 33134 ft | 486 kts | 106° |
| 2026-04-30 14:59 | 45.20165 | 18.72115 | 33537 ft | 486 kts | 107° |
| 2026-04-30 15:00 | 45.17282 | 18.85881 | 34290 ft | 485 kts | 107° |
| 2026-04-30 15:00 | 45.15357 | 18.95021 | 34777 ft | 483 kts | 107° |
| 2026-04-30 15:01 | 45.13433 | 19.04116 | 35000 ft | 488 kts | 107° |
| 2026-04-30 15:01 | 45.12127 | 19.18476 | 35012 ft | 494 kts | 94° |
| 2026-04-30 15:02 | 45.11648 | 19.28167 | 35012 ft | 493 kts | 94° |
| 2026-04-30 15:03 | 45.10391 | 19.52315 | 35014 ft | 492 kts | 94° |
| 2026-04-30 15:04 | 45.09089 | 19.76429 | 35011 ft | 492 kts | 94° |
| 2026-04-30 15:06 | 45.07735 | 20.00571 | 35006 ft | 492 kts | 95° |
| 2026-04-30 15:07 | 45.06615 | 20.19879 | 35008 ft | 492 kts | 95° |
| 2026-04-30 15:08 | 45.05561 | 20.37546 | 35008 ft | 492 kts | 95° |
| 2026-04-30 15:09 | 45.04080 | 20.61617 | 35011 ft | 492 kts | 95° |
| 2026-04-30 15:10 | 45.02857 | 20.80887 | 35008 ft | 495 kts | 95° |
| 2026-04-30 15:11 | 45.00959 | 21.09832 | 35009 ft | 492 kts | 95° |
| 2026-04-30 15:13 | 44.99325 | 21.33889 | 35001 ft | 492 kts | 95° |
| 2026-04-30 15:14 | 44.95894 | 21.52425 | 35015 ft | 494 kts | 110° |
| 2026-04-30 15:14 | 44.92371 | 21.66086 | 35006 ft | 493 kts | 110° |
| 2026-04-30 15:17 | 44.81691 | 22.06964 | 35006 ft | 496 kts | 110° |
| 2026-04-30 15:19 | 44.72022 | 22.43386 | 35008 ft | 492 kts | 110° |
| 2026-04-30 17:39 | 40.70388 | 47.52536 | 39004 ft | 484 kts | 110° |
| 2026-04-30 17:42 | 40.58604 | 47.94055 | 39002 ft | 481 kts | 110° |
| 2026-04-30 17:43 | 40.53422 | 48.15007 | 39016 ft | 484 kts | 108° |
| 2026-04-30 17:44 | 40.47190 | 48.40220 | 39006 ft | 483 kts | 108° |
| 2026-04-30 17:47 | 40.37774 | 48.77836 | 39010 ft | 485 kts | 108° |
| 2026-04-30 17:48 | 40.30298 | 49.07283 | 39018 ft | 485 kts | 109° |
| 2026-04-30 17:50 | 40.21669 | 49.40594 | 39006 ft | 482 kts | 109° |
| 2026-04-30 17:51 | 40.18728 | 49.53131 | 39038 ft | 480 kts | 96° |
| 2026-04-30 17:52 | 40.17562 | 49.66143 | 39012 ft | 482 kts | 97° |
| 2026-04-30 17:54 | 40.13879 | 50.05360 | 39008 ft | 482 kts | 97° |
| 2026-04-30 17:56 | 40.10518 | 50.40030 | 39005 ft | 481 kts | 97° |
| 2026-04-30 17:58 | 40.07932 | 50.65993 | 38998 ft | 481 kts | 97° |
| 2026-04-30 18:00 | 40.04384 | 51.00669 | 39013 ft | 482 kts | 98° |
| 2026-04-30 18:01 | 40.02118 | 51.22289 | 39005 ft | 482 kts | 98° |
| 2026-04-30 18:02 | 39.99337 | 51.48286 | 39003 ft | 481 kts | 98° |
| 2026-04-30 18:04 | 39.94723 | 51.73699 | 39015 ft | 482 kts | 104° |
| 2026-04-30 18:06 | 39.88285 | 52.07651 | 39015 ft | 482 kts | 104° |
| 2026-04-30 18:08 | 39.82581 | 52.37272 | 39008 ft | 482 kts | 104° |
| 2026-04-30 18:10 | 39.75981 | 52.71009 | 39005 ft | 481 kts | 104° |
| 2026-04-30 18:11 | 39.70212 | 53.00493 | 39001 ft | 480 kts | 104° |
| 2026-04-30 18:13 | 39.66105 | 53.21425 | 39004 ft | 479 kts | 104° |
| 2026-04-30 18:14 | 39.61961 | 53.42354 | 39000 ft | 479 kts | 104° |
| 2026-04-30 18:15 | 39.56945 | 53.67398 | 39006 ft | 480 kts | 104° |
| 2026-04-30 18:16 | 39.53554 | 53.84158 | 39004 ft | 480 kts | 105° |
| 2026-04-30 18:17 | 39.51850 | 53.92527 | 39001 ft | 480 kts | 105° |
| 2026-04-30 18:18 | 39.49283 | 54.05067 | 39010 ft | 480 kts | 105° |
| 2026-04-30 18:18 | 39.47552 | 54.13338 | 39002 ft | 479 kts | 105° |
| 2026-04-30 18:19 | 39.45816 | 54.21653 | 39012 ft | 479 kts | 105° |
| 2026-04-30 18:19 | 39.44069 | 54.29969 | 39009 ft | 479 kts | 105° |
| 2026-04-30 18:20 | 39.42315 | 54.38295 | 39007 ft | 479 kts | 105° |
| 2026-04-30 18:20 | 39.40552 | 54.46626 | 39001 ft | 480 kts | 105° |
| 2026-04-30 18:21 | 39.38782 | 54.54957 | 39005 ft | 480 kts | 105° |
| 2026-04-30 18:21 | 39.37018 | 54.63234 | 39007 ft | 481 kts | 105° |
| 2026-04-30 18:22 | 39.35236 | 54.71557 | 39007 ft | 481 kts | 105° |
| 2026-04-30 18:22 | 39.32851 | 54.82651 | 39010 ft | 481 kts | 105° |
| 2026-04-30 18:23 | 39.31052 | 54.90978 | 39005 ft | 482 kts | 105° |
| 2026-04-30 18:23 | 39.29237 | 54.99353 | 39006 ft | 485 kts | 105° |
| 2026-04-30 18:24 | 39.26518 | 55.11835 | 39004 ft | 479 kts | 105° |
| 2026-04-30 18:25 | 39.24708 | 55.20103 | 39007 ft | 479 kts | 106° |
| 2026-04-30 18:25 | 39.21975 | 55.32535 | 39002 ft | 481 kts | 106° |
| 2026-04-30 18:26 | 39.19216 | 55.45013 | 39010 ft | 483 kts | 106° |
| 2026-04-30 18:27 | 39.16441 | 55.57492 | 39012 ft | 485 kts | 106° |
| 2026-04-30 18:28 | 39.13637 | 55.70003 | 39012 ft | 483 kts | 106° |
| 2026-04-30 18:28 | 39.10837 | 55.82433 | 39003 ft | 481 kts | 106° |
| 2026-04-30 18:29 | 39.07092 | 55.98950 | 39004 ft | 482 kts | 106° |
| 2026-04-30 18:30 | 39.03314 | 56.15489 | 39017 ft | 481 kts | 106° |
| 2026-04-30 18:31 | 39.00474 | 56.27850 | 39007 ft | 481 kts | 107° |
| 2026-04-30 18:32 | 38.97231 | 56.40038 | 38998 ft | 480 kts | 109° |
| 2026-04-30 18:33 | 38.93890 | 56.52165 | 38999 ft | 480 kts | 109° |
| 2026-04-30 18:33 | 38.90552 | 56.64298 | 39007 ft | 480 kts | 110° |
| 2026-04-30 18:34 | 38.87204 | 56.76371 | 39007 ft | 480 kts | 109° |
| 2026-04-30 18:35 | 38.84953 | 56.84457 | 39006 ft | 481 kts | 110° |
| 2026-04-30 18:35 | 38.82701 | 56.92527 | 39001 ft | 481 kts | 110° |
| 2026-04-30 18:36 | 38.79309 | 57.04629 | 39006 ft | 481 kts | 110° |
| 2026-04-30 18:37 | 38.75901 | 57.16732 | 39002 ft | 481 kts | 110° |
| 2026-04-30 18:37 | 38.73623 | 57.24794 | 39007 ft | 481 kts | 110° |
| 2026-04-30 18:38 | 38.71354 | 57.32799 | 39003 ft | 481 kts | 110° |
| 2026-04-30 18:38 | 38.69066 | 57.40845 | 39008 ft | 481 kts | 110° |
| 2026-04-30 18:39 | 38.66771 | 57.48890 | 39011 ft | 480 kts | 110° |
| 2026-04-30 18:39 | 38.64474 | 57.56918 | 39004 ft | 480 kts | 110° |
| 2026-04-30 18:40 | 38.62183 | 57.64901 | 39014 ft | 480 kts | 110° |
| 2026-04-30 18:40 | 38.59536 | 57.72727 | 38997 ft | 480 kts | 114° |
| 2026-04-30 18:41 | 38.56831 | 57.80525 | 38995 ft | 480 kts | 114° |
| 2026-04-30 18:41 | 38.54101 | 57.88293 | 38999 ft | 479 kts | 114° |
| 2026-04-30 18:42 | 38.51464 | 57.95819 | 39001 ft | 479 kts | 114° |
| 2026-04-30 18:42 | 38.47333 | 58.07538 | 39001 ft | 479 kts | 114° |
| 2026-04-30 18:45 | 38.30329 | 58.48811 | 39010 ft | 481 kts | 121° |
| 2026-04-30 18:46 | 38.26869 | 58.56111 | 39011 ft | 481 kts | 121° |
| 2026-04-30 18:46 | 38.23437 | 58.63371 | 39015 ft | 481 kts | 121° |
| 2026-04-30 18:47 | 38.19977 | 58.70652 | 39009 ft | 481 kts | 121° |
| 2026-04-30 18:47 | 38.16515 | 58.77935 | 39010 ft | 480 kts | 121° |
| 2026-04-30 18:48 | 38.13053 | 58.85194 | 39008 ft | 480 kts | 121° |
| 2026-04-30 18:48 | 38.09592 | 58.92437 | 39004 ft | 480 kts | 121° |
| 2026-04-30 18:49 | 38.06124 | 58.99678 | 39010 ft | 479 kts | 121° |
| 2026-04-30 18:49 | 38.02654 | 59.06907 | 39010 ft | 479 kts | 121° |
| 2026-04-30 18:50 | 37.99205 | 59.14076 | 39017 ft | 479 kts | 121° |
| 2026-04-30 18:50 | 37.95727 | 59.21291 | 39002 ft | 479 kts | 121° |
| 2026-04-30 18:51 | 37.92243 | 59.28500 | 39006 ft | 479 kts | 121° |
| 2026-04-30 18:51 | 37.88738 | 59.35600 | 39010 ft | 477 kts | 128° |
| 2026-04-30 18:52 | 37.84703 | 59.42300 | 38997 ft | 479 kts | 128° |
| 2026-04-30 18:52 | 37.80659 | 59.49024 | 39003 ft | 480 kts | 127° |
| 2026-04-30 18:53 | 37.76611 | 59.55746 | 39005 ft | 481 kts | 127° |
| 2026-04-30 18:53 | 37.72551 | 59.62464 | 39008 ft | 481 kts | 127° |
| 2026-04-30 18:54 | 37.68493 | 59.69175 | 39011 ft | 481 kts | 127° |
| 2026-04-30 18:54 | 37.64428 | 59.75876 | 39007 ft | 481 kts | 127° |
| 2026-04-30 18:55 | 37.60356 | 59.82580 | 39013 ft | 481 kts | 128° |
| 2026-04-30 18:55 | 37.54277 | 59.92559 | 39013 ft | 480 kts | 128° |
| 2026-04-30 18:56 | 37.48159 | 60.02573 | 39009 ft | 480 kts | 128° |
| 2026-04-30 18:57 | 37.42047 | 60.12547 | 39009 ft | 480 kts | 128° |
| 2026-04-30 18:57 | 37.37963 | 60.19195 | 39004 ft | 480 kts | 128° |
| 2026-04-30 18:58 | 37.31839 | 60.29139 | 39008 ft | 479 kts | 128° |
| 2026-04-30 18:59 | 37.25732 | 60.39025 | 39003 ft | 479 kts | 128° |
| 2026-04-30 19:00 | 37.17542 | 60.52239 | 39005 ft | 479 kts | 128° |
| 2026-04-30 19:01 | 37.09375 | 60.65363 | 39005 ft | 479 kts | 128° |
| 2026-04-30 19:02 | 37.03226 | 60.75210 | 39004 ft | 478 kts | 128° |
| 2026-04-30 19:03 | 36.95214 | 60.88496 | 38998 ft | 478 kts | 125° |
| 2026-04-30 19:04 | 36.87527 | 61.02131 | 39013 ft | 480 kts | 125° |
| 2026-04-30 19:05 | 36.79846 | 61.15727 | 39016 ft | 481 kts | 125° |
| 2026-04-30 19:06 | 36.72131 | 61.29335 | 39010 ft | 480 kts | 125° |
| 2026-04-30 19:06 | 36.66330 | 61.39532 | 39006 ft | 479 kts | 125° |
| 2026-04-30 19:07 | 36.60532 | 61.49659 | 39014 ft | 478 kts | 126° |
| 2026-04-30 19:08 | 36.52676 | 61.63022 | 39004 ft | 478 kts | 126° |
| 2026-04-30 19:09 | 36.47454 | 61.71879 | 39009 ft | 478 kts | 126° |
| 2026-04-30 19:09 | 36.42883 | 61.79640 | 38998 ft | 480 kts | 126° |
| 2026-04-30 19:10 | 36.35624 | 61.91909 | 39023 ft | 482 kts | 126° |
| 2026-04-30 19:11 | 36.29580 | 62.02093 | 39029 ft | 494 kts | 126° |
| 2026-04-30 19:12 | 36.25470 | 62.09001 | 39009 ft | 501 kts | 126° |
| 2026-04-30 19:12 | 36.21333 | 62.15939 | 39007 ft | 506 kts | 127° |
| 2026-04-30 19:13 | 36.12959 | 62.29944 | 39005 ft | 505 kts | 127° |
| 2026-04-30 19:14 | 36.08774 | 62.36920 | 39014 ft | 505 kts | 127° |
| 2026-04-30 19:14 | 36.04593 | 62.43877 | 39013 ft | 504 kts | 127° |
| 2026-04-30 19:15 | 36.00401 | 62.50837 | 39005 ft | 503 kts | 127° |
| 2026-04-30 19:15 | 35.94169 | 62.61160 | 39002 ft | 502 kts | 127° |
| 2026-04-30 19:16 | 35.89974 | 62.68089 | 39005 ft | 504 kts | 127° |
| 2026-04-30 19:17 | 35.83670 | 62.78479 | 39011 ft | 504 kts | 127° |
| 2026-04-30 19:17 | 35.77387 | 62.88802 | 39017 ft | 504 kts | 127° |
| 2026-04-30 19:18 | 35.71068 | 62.99153 | 39010 ft | 503 kts | 127° |
| 2026-04-30 19:19 | 35.66949 | 63.05884 | 38998 ft | 482 kts | 127° |
| 2026-04-30 19:19 | 35.60940 | 63.15680 | 39010 ft | 479 kts | 127° |
| 2026-04-30 19:20 | 35.56936 | 63.22183 | 39004 ft | 480 kts | 127° |
| 2026-04-30 19:21 | 35.50811 | 63.31937 | 39003 ft | 480 kts | 127° |
| 2026-04-30 19:22 | 35.42649 | 63.44943 | 39008 ft | 482 kts | 128° |
| 2026-04-30 19:23 | 35.30330 | 63.64479 | 39010 ft | 483 kts | 128° |
| 2026-04-30 19:24 | 35.24257 | 63.74127 | 39009 ft | 484 kts | 128° |
| 2026-04-30 19:25 | 35.13987 | 63.90379 | 39006 ft | 487 kts | 128° |
| 2026-04-30 19:26 | 35.05666 | 64.03494 | 39011 ft | 488 kts | 128° |
| 2026-04-30 19:27 | 34.99458 | 64.13246 | 39003 ft | 483 kts | 128° |
| 2026-04-30 19:28 | 34.93240 | 64.22987 | 39008 ft | 491 kts | 128° |
| 2026-04-30 19:29 | 34.84806 | 64.36158 | 39017 ft | 494 kts | 128° |
| 2026-04-30 19:30 | 34.76360 | 64.49299 | 39007 ft | 492 kts | 128° |
| 2026-04-30 19:31 | 34.67916 | 64.62389 | 39005 ft | 495 kts | 128° |
| 2026-04-30 19:31 | 34.61545 | 64.72230 | 39007 ft | 494 kts | 128° |
| 2026-04-30 19:32 | 34.57300 | 64.78775 | 39002 ft | 493 kts | 128° |
| 2026-04-30 19:32 | 34.53028 | 64.85347 | 39015 ft | 499 kts | 128° |
| 2026-04-30 19:33 | 34.48690 | 64.92009 | 38998 ft | 508 kts | 128° |
| 2026-04-30 19:33 | 34.44266 | 64.98768 | 39004 ft | 515 kts | 128° |
| 2026-04-30 19:34 | 34.39822 | 65.05554 | 39009 ft | 519 kts | 128° |
| 2026-04-30 19:35 | 34.33043 | 65.15873 | 39015 ft | 523 kts | 128° |
| 2026-04-30 19:35 | 34.28509 | 65.22760 | 39010 ft | 522 kts | 128° |
| 2026-04-30 19:36 | 34.23984 | 65.29620 | 39009 ft | 521 kts | 129° |
| 2026-04-30 19:36 | 34.17201 | 65.39878 | 39008 ft | 520 kts | 129° |
| 2026-04-30 19:37 | 34.12685 | 65.46691 | 39002 ft | 520 kts | 129° |
| 2026-04-30 19:37 | 34.08149 | 65.53522 | 39008 ft | 523 kts | 129° |
| 2026-04-30 19:38 | 34.03611 | 65.60355 | 39012 ft | 521 kts | 129° |
| 2026-04-30 19:38 | 33.99093 | 65.67157 | 39012 ft | 519 kts | 129° |
| 2026-04-30 19:39 | 33.94559 | 65.73960 | 39006 ft | 520 kts | 129° |
| 2026-04-30 19:39 | 33.90070 | 65.80691 | 39012 ft | 517 kts | 129° |
| 2026-04-30 19:40 | 33.85552 | 65.87448 | 39010 ft | 519 kts | 129° |
| 2026-04-30 19:40 | 33.81007 | 65.94233 | 39021 ft | 521 kts | 129° |
| 2026-04-30 19:41 | 33.76444 | 66.01032 | 39005 ft | 522 kts | 129° |
| 2026-04-30 19:41 | 33.71903 | 66.07788 | 39003 ft | 515 kts | 129° |
| 2026-04-30 19:42 | 33.67423 | 66.14439 | 38998 ft | 511 kts | 129° |
| 2026-04-30 19:42 | 33.62971 | 66.21037 | 38992 ft | 507 kts | 129° |
| 2026-04-30 19:43 | 33.58527 | 66.27611 | 38991 ft | 507 kts | 129° |
| 2026-04-30 19:44 | 33.51857 | 66.37456 | 38999 ft | 508 kts | 129° |
| 2026-04-30 19:44 | 33.47400 | 66.44019 | 38995 ft | 508 kts | 129° |
| 2026-04-30 19:45 | 33.42914 | 66.50598 | 39002 ft | 510 kts | 129° |
| 2026-04-30 19:45 | 33.38436 | 66.57128 | 39002 ft | 511 kts | 129° |
| 2026-04-30 19:46 | 33.33929 | 66.63707 | 39001 ft | 510 kts | 129° |
| 2026-04-30 19:46 | 33.29401 | 66.70292 | 38999 ft | 514 kts | 129° |
| 2026-04-30 19:47 | 33.24847 | 66.76912 | 38994 ft | 514 kts | 129° |
| 2026-04-30 19:47 | 33.20294 | 66.83513 | 39003 ft | 514 kts | 129° |
| 2026-04-30 19:48 | 33.15776 | 66.90054 | 39001 ft | 514 kts | 129° |
| 2026-04-30 19:48 | 33.11209 | 66.96652 | 39010 ft | 517 kts | 129° |
| 2026-04-30 19:49 | 33.06622 | 67.03269 | 39002 ft | 517 kts | 129° |
| 2026-04-30 19:49 | 32.99728 | 67.13190 | 39011 ft | 516 kts | 130° |
| 2026-04-30 19:50 | 32.95200 | 67.19693 | 39007 ft | 511 kts | 130° |
| 2026-04-30 19:50 | 32.90633 | 67.26239 | 39006 ft | 511 kts | 130° |
| 2026-04-30 19:51 | 32.86085 | 67.32746 | 39007 ft | 510 kts | 130° |
| 2026-04-30 19:51 | 32.81546 | 67.39230 | 38999 ft | 511 kts | 130° |
| 2026-04-30 19:52 | 32.76961 | 67.45722 | 39010 ft | 512 kts | 133° |
| 2026-04-30 19:52 | 32.72277 | 67.52021 | 39007 ft | 511 kts | 131° |
| 2026-04-30 19:53 | 32.67592 | 67.58334 | 39002 ft | 508 kts | 132° |
| 2026-04-30 19:53 | 32.62904 | 67.64599 | 39004 ft | 507 kts | 131° |
| 2026-04-30 19:54 | 32.58217 | 67.70893 | 38999 ft | 510 kts | 131° |
| 2026-04-30 19:54 | 32.53490 | 67.77197 | 39001 ft | 511 kts | 131° |
| 2026-04-30 19:55 | 32.48888 | 67.83528 | 39026 ft | 509 kts | 129° |
| 2026-04-30 19:55 | 32.44361 | 67.89979 | 38996 ft | 508 kts | 130° |
| 2026-04-30 19:56 | 32.39869 | 67.96450 | 39007 ft | 508 kts | 129° |
| 2026-04-30 19:56 | 32.35397 | 68.02855 | 38997 ft | 507 kts | 130° |
| 2026-04-30 19:57 | 32.30887 | 68.09304 | 38997 ft | 509 kts | 129° |
| 2026-04-30 19:57 | 32.26369 | 68.15762 | 38997 ft | 510 kts | 130° |
| 2026-04-30 19:58 | 32.22595 | 68.21137 | 38996 ft | 511 kts | 130° |
| 2026-04-30 19:58 | 32.18051 | 68.27612 | 39002 ft | 511 kts | 130° |
| 2026-04-30 19:59 | 32.13503 | 68.34072 | 39004 ft | 511 kts | 130° |
| 2026-04-30 20:00 | 32.06705 | 68.43713 | 39003 ft | 511 kts | 130° |
| 2026-04-30 20:00 | 32.02150 | 68.50159 | 39001 ft | 511 kts | 130° |
| 2026-04-30 20:01 | 31.95329 | 68.59791 | 39001 ft | 510 kts | 130° |
| 2026-04-30 20:01 | 31.90786 | 68.66193 | 39003 ft | 509 kts | 130° |
| 2026-04-30 20:02 | 31.83976 | 68.75768 | 39001 ft | 508 kts | 130° |
| 2026-04-30 20:03 | 31.77174 | 68.85309 | 38998 ft | 507 kts | 130° |
| 2026-04-30 20:03 | 31.72657 | 68.91631 | 39002 ft | 508 kts | 130° |
| 2026-04-30 20:04 | 31.68092 | 68.98010 | 39008 ft | 509 kts | 130° |
| 2026-04-30 20:05 | 31.61478 | 69.07713 | 39001 ft | 506 kts | 129° |
| 2026-04-30 20:05 | 31.54908 | 69.17490 | 39003 ft | 508 kts | 128° |
| 2026-04-30 20:06 | 31.50509 | 69.23970 | 39004 ft | 507 kts | 128° |
| 2026-04-30 20:06 | 31.46138 | 69.30450 | 39008 ft | 507 kts | 128° |
| 2026-04-30 20:07 | 31.41761 | 69.36902 | 39004 ft | 504 kts | 128° |
| 2026-04-30 20:08 | 31.35137 | 69.46358 | 39039 ft | 503 kts | 138° |
| 2026-04-30 20:08 | 31.29717 | 69.51581 | 39008 ft | 507 kts | 141° |
| 2026-04-30 20:09 | 31.24213 | 69.56785 | 39005 ft | 510 kts | 141° |
| 2026-04-30 20:09 | 31.15964 | 69.64599 | 39015 ft | 508 kts | 141° |
| 2026-04-30 20:10 | 31.07722 | 69.72391 | 39015 ft | 509 kts | 141° |
| 2026-04-30 20:11 | 30.99502 | 69.80134 | 39015 ft | 506 kts | 141° |
| 2026-04-30 20:11 | 30.94047 | 69.85265 | 39002 ft | 503 kts | 141° |
| 2026-04-30 20:12 | 30.85868 | 69.92945 | 39002 ft | 503 kts | 141° |
| 2026-04-30 20:13 | 30.80407 | 69.98061 | 39010 ft | 503 kts | 141° |
| 2026-04-30 20:13 | 30.74951 | 70.03166 | 39004 ft | 509 kts | 141° |
| 2026-04-30 20:14 | 30.69443 | 70.08313 | 39014 ft | 506 kts | 141° |
| 2026-04-30 20:14 | 30.63972 | 70.13416 | 39014 ft | 501 kts | 141° |
| 2026-04-30 20:15 | 30.58528 | 70.18486 | 39000 ft | 501 kts | 141° |
| 2026-04-30 20:15 | 30.53087 | 70.23547 | 39003 ft | 499 kts | 141° |
| 2026-04-30 20:16 | 30.47836 | 70.28424 | 39001 ft | 498 kts | 141° |
| 2026-04-30 20:16 | 30.42415 | 70.33451 | 39012 ft | 498 kts | 141° |
| 2026-04-30 20:17 | 30.37007 | 70.38459 | 39004 ft | 497 kts | 141° |
| 2026-04-30 20:17 | 30.31604 | 70.43455 | 39010 ft | 497 kts | 141° |
| 2026-04-30 20:18 | 30.26229 | 70.48418 | 38986 ft | 496 kts | 141° |
| 2026-04-30 20:18 | 30.20844 | 70.53387 | 38992 ft | 495 kts | 141° |
| 2026-04-30 20:19 | 30.15541 | 70.58452 | 38998 ft | 494 kts | 140° |
| 2026-04-30 20:19 | 30.10210 | 70.63476 | 38998 ft | 494 kts | 141° |
| 2026-04-30 20:20 | 30.04887 | 70.68506 | 38988 ft | 494 kts | 141° |
| 2026-04-30 20:20 | 29.99573 | 70.73517 | 38997 ft | 493 kts | 141° |
| 2026-04-30 20:21 | 29.94247 | 70.78529 | 38993 ft | 493 kts | 141° |
| 2026-04-30 20:21 | 29.88966 | 70.83496 | 38994 ft | 493 kts | 141° |
| 2026-04-30 20:22 | 29.83640 | 70.88494 | 38992 ft | 494 kts | 141° |
| 2026-04-30 20:22 | 29.78304 | 70.93497 | 38995 ft | 495 kts | 141° |
| 2026-04-30 20:23 | 29.72946 | 70.98512 | 38997 ft | 497 kts | 141° |
| 2026-04-30 20:23 | 29.67590 | 71.03554 | 39009 ft | 496 kts | 137° |
| 2026-04-30 20:24 | 29.62462 | 71.08813 | 39006 ft | 496 kts | 139° |
| 2026-04-30 20:24 | 29.57281 | 71.14082 | 38998 ft | 496 kts | 138° |
| 2026-04-30 20:25 | 29.49563 | 71.21955 | 38999 ft | 496 kts | 139° |
| 2026-04-30 20:26 | 29.41815 | 71.29845 | 38999 ft | 496 kts | 139° |
| 2026-04-30 20:26 | 29.34046 | 71.37727 | 39007 ft | 496 kts | 139° |
| 2026-04-30 20:27 | 29.23728 | 71.48242 | 39009 ft | 496 kts | 138° |
| 2026-04-30 20:28 | 29.13461 | 71.58722 | 39001 ft | 495 kts | 138° |
| 2026-04-30 20:30 | 29.00599 | 71.71816 | 39003 ft | 495 kts | 138° |
| 2026-04-30 20:31 | 28.85188 | 71.87443 | 38999 ft | 494 kts | 139° |
| 2026-04-30 20:32 | 28.72328 | 72.00434 | 39000 ft | 494 kts | 139° |
| 2026-04-30 20:33 | 28.64621 | 72.08197 | 38998 ft | 494 kts | 139° |
| 2026-04-30 20:34 | 28.56898 | 72.15962 | 39001 ft | 494 kts | 139° |
| 2026-04-30 20:35 | 28.49304 | 72.23680 | 39004 ft | 493 kts | 131° |
| 2026-04-30 20:35 | 28.47211 | 72.26774 | 39029 ft | 494 kts | 120° |
| 2026-04-30 20:35 | 28.43960 | 72.33675 | 39008 ft | 497 kts | 117° |
| 2026-04-30 20:36 | 28.40763 | 72.40639 | 39014 ft | 497 kts | 118° |
| 2026-04-30 20:37 | 28.35925 | 72.51059 | 39009 ft | 497 kts | 118° |
| 2026-04-30 20:37 | 28.32706 | 72.57989 | 39019 ft | 496 kts | 118° |
| 2026-04-30 20:38 | 28.29502 | 72.64874 | 39014 ft | 496 kts | 118° |
| 2026-04-30 20:38 | 28.26282 | 72.71784 | 39008 ft | 495 kts | 118° |
| 2026-04-30 20:39 | 28.21445 | 72.82143 | 39012 ft | 494 kts | 118° |
| 2026-04-30 20:40 | 28.16627 | 72.92432 | 39004 ft | 495 kts | 118° |
| 2026-04-30 20:40 | 28.14096 | 72.97828 | 39003 ft | 497 kts | 118° |
| 2026-04-30 20:41 | 28.11935 | 73.02425 | 39004 ft | 498 kts | 118° |
| 2026-04-30 20:41 | 28.08703 | 73.09304 | 39004 ft | 498 kts | 118° |
| 2026-04-30 20:42 | 28.06117 | 73.14791 | 39008 ft | 497 kts | 118° |
| 2026-04-30 20:43 | 28.01296 | 73.25012 | 39007 ft | 495 kts | 118° |
| 2026-04-30 20:43 | 27.98046 | 73.31880 | 39007 ft | 494 kts | 118° |
| 2026-04-30 20:44 | 27.93155 | 73.42206 | 39000 ft | 496 kts | 118° |
| 2026-04-30 20:45 | 27.86620 | 73.55956 | 39010 ft | 499 kts | 118° |
| 2026-04-30 20:45 | 27.83330 | 73.62863 | 39012 ft | 498 kts | 118° |
| 2026-04-30 20:46 | 27.76765 | 73.76608 | 39010 ft | 496 kts | 118° |
| 2026-04-30 20:47 | 27.72480 | 73.85760 | 39026 ft | 495 kts | 116° |
| 2026-04-30 20:48 | 27.67802 | 73.96198 | 39009 ft | 498 kts | 116° |
| 2026-04-30 20:48 | 27.64722 | 74.03206 | 39009 ft | 498 kts | 117° |
| 2026-04-30 20:49 | 27.61591 | 74.10190 | 39008 ft | 498 kts | 117° |
| 2026-04-30 20:50 | 27.56942 | 74.20628 | 39005 ft | 498 kts | 117° |
| 2026-04-30 20:50 | 27.53821 | 74.27600 | 39008 ft | 498 kts | 117° |
| 2026-04-30 20:51 | 27.50700 | 74.34573 | 39009 ft | 498 kts | 117° |
| 2026-04-30 20:51 | 27.46007 | 74.45026 | 39010 ft | 498 kts | 117° |
| 2026-04-30 20:52 | 27.42878 | 74.51980 | 39011 ft | 498 kts | 117° |
| 2026-04-30 20:53 | 27.38184 | 74.62392 | 39018 ft | 497 kts | 117° |
| 2026-04-30 20:53 | 27.35049 | 74.69333 | 39002 ft | 497 kts | 117° |
| 2026-04-30 20:54 | 27.30359 | 74.79693 | 39007 ft | 497 kts | 117° |
| 2026-04-30 20:55 | 27.25638 | 74.90098 | 39006 ft | 497 kts | 117° |
| 2026-04-30 20:55 | 27.22491 | 74.97018 | 39005 ft | 497 kts | 117° |
| 2026-04-30 20:56 | 27.17766 | 75.07389 | 39006 ft | 496 kts | 117° |
| 2026-04-30 20:57 | 27.13035 | 75.17745 | 39005 ft | 497 kts | 117° |
| 2026-04-30 20:57 | 27.09893 | 75.24610 | 39003 ft | 497 kts | 117° |
| 2026-04-30 20:58 | 27.05139 | 75.34976 | 39016 ft | 498 kts | 117° |
| 2026-04-30 20:58 | 27.01964 | 75.41880 | 39007 ft | 498 kts | 117° |
| 2026-04-30 20:59 | 26.97189 | 75.52244 | 39010 ft | 498 kts | 117° |
| 2026-04-30 21:00 | 26.90836 | 75.65993 | 39011 ft | 499 kts | 117° |
| 2026-04-30 21:01 | 26.86042 | 75.76339 | 39010 ft | 499 kts | 117° |
| 2026-04-30 21:02 | 26.81119 | 75.86605 | 38998 ft | 498 kts | 120° |
| 2026-04-30 21:02 | 26.77724 | 75.93383 | 39005 ft | 498 kts | 119° |
| 2026-04-30 21:03 | 26.74280 | 76.00104 | 39003 ft | 498 kts | 120° |
| 2026-04-30 21:03 | 26.70860 | 76.06828 | 39001 ft | 497 kts | 120° |
| 2026-04-30 21:04 | 26.67426 | 76.13550 | 39002 ft | 497 kts | 120° |
| 2026-04-30 21:04 | 26.62281 | 76.23609 | 38998 ft | 497 kts | 120° |
| 2026-04-30 21:05 | 26.58864 | 76.30270 | 38996 ft | 496 kts | 120° |
| 2026-04-30 21:05 | 26.55427 | 76.36969 | 38994 ft | 497 kts | 120° |
| 2026-04-30 21:06 | 26.51980 | 76.43672 | 39004 ft | 496 kts | 120° |
| 2026-04-30 21:06 | 26.48567 | 76.50301 | 38995 ft | 495 kts | 120° |
| 2026-04-30 21:07 | 26.46853 | 76.53626 | 38996 ft | 495 kts | 120° |
| 2026-04-30 21:07 | 26.44658 | 76.58260 | 39004 ft | 495 kts | 118° |
| 2026-04-30 21:08 | 26.42585 | 76.62487 | 39015 ft | 497 kts | 118° |
| 2026-04-30 21:08 | 26.39332 | 76.69308 | 39009 ft | 498 kts | 117° |
| 2026-04-30 21:09 | 26.36072 | 76.76126 | 39019 ft | 498 kts | 118° |
| 2026-04-30 21:09 | 26.32824 | 76.82888 | 39006 ft | 497 kts | 118° |
| 2026-04-30 21:10 | 26.29576 | 76.89665 | 39005 ft | 496 kts | 118° |
| 2026-04-30 21:10 | 26.26314 | 76.96439 | 39010 ft | 497 kts | 118° |
| 2026-04-30 21:11 | 26.23047 | 77.03227 | 39012 ft | 497 kts | 118° |
| 2026-04-30 21:11 | 26.19801 | 77.09953 | 39003 ft | 495 kts | 118° |
| 2026-04-30 21:12 | 26.16543 | 77.16701 | 38999 ft | 495 kts | 118° |
| 2026-04-30 21:12 | 26.13272 | 77.23459 | 39005 ft | 496 kts | 118° |
| 2026-04-30 21:13 | 26.09978 | 77.30209 | 39009 ft | 497 kts | 118° |
| 2026-04-30 21:13 | 26.06685 | 77.36964 | 39009 ft | 497 kts | 118° |
| 2026-04-30 21:14 | 26.03390 | 77.43709 | 39004 ft | 496 kts | 118° |
| 2026-04-30 21:14 | 26.00111 | 77.50409 | 39005 ft | 496 kts | 118° |
| 2026-04-30 21:15 | 25.96812 | 77.57142 | 39011 ft | 497 kts | 118° |
| 2026-04-30 21:15 | 25.93511 | 77.63868 | 39007 ft | 498 kts | 118° |
| 2026-04-30 21:16 | 25.90193 | 77.70620 | 39018 ft | 498 kts | 118° |
| 2026-04-30 21:16 | 25.86875 | 77.77359 | 39006 ft | 497 kts | 118° |
| 2026-04-30 21:17 | 25.83556 | 77.84092 | 39008 ft | 497 kts | 118° |
| 2026-04-30 21:17 | 25.80250 | 77.90787 | 39007 ft | 496 kts | 118° |
| 2026-04-30 21:18 | 25.76930 | 77.97502 | 39011 ft | 496 kts | 119° |
| 2026-04-30 21:18 | 25.73608 | 78.04211 | 39002 ft | 495 kts | 119° |
| 2026-04-30 21:19 | 25.70292 | 78.10897 | 39006 ft | 495 kts | 119° |
| 2026-04-30 21:19 | 25.66966 | 78.17595 | 39002 ft | 496 kts | 119° |
| 2026-04-30 21:20 | 25.63632 | 78.24297 | 39007 ft | 497 kts | 119° |
| 2026-04-30 21:20 | 25.60288 | 78.31011 | 39009 ft | 498 kts | 119° |
| 2026-04-30 21:21 | 25.56987 | 78.37762 | 39011 ft | 499 kts | 118° |
| 2026-04-30 21:22 | 25.52027 | 78.47835 | 39009 ft | 497 kts | 118° |
| 2026-04-30 21:23 | 25.45435 | 78.61212 | 38999 ft | 495 kts | 118° |
| 2026-04-30 21:23 | 25.40472 | 78.71258 | 39006 ft | 497 kts | 118° |
| 2026-04-30 21:24 | 25.37168 | 78.77930 | 39007 ft | 498 kts | 118° |
| 2026-04-30 21:24 | 25.33843 | 78.84637 | 39009 ft | 498 kts | 119° |
| 2026-04-30 21:25 | 25.28837 | 78.94713 | 39009 ft | 499 kts | 119° |
| 2026-04-30 21:26 | 25.23833 | 79.04765 | 39009 ft | 496 kts | 119° |
| 2026-04-30 21:27 | 25.18860 | 79.14731 | 39003 ft | 495 kts | 119° |
| 2026-04-30 21:27 | 25.15531 | 79.21392 | 39001 ft | 496 kts | 119° |
| 2026-04-30 21:28 | 25.10541 | 79.31357 | 39004 ft | 497 kts | 119° |
| 2026-04-30 21:29 | 25.05518 | 79.41367 | 39013 ft | 498 kts | 119° |
| 2026-04-30 21:30 | 24.97128 | 79.58039 | 39011 ft | 497 kts | 119° |
| 2026-04-30 21:31 | 24.88721 | 79.74684 | 39005 ft | 497 kts | 119° |
| 2026-04-30 21:32 | 24.83676 | 79.84646 | 39003 ft | 496 kts | 119° |
| 2026-04-30 21:32 | 24.80257 | 79.91243 | 39011 ft | 495 kts | 126° |
| 2026-04-30 21:33 | 24.73736 | 79.99991 | 39009 ft | 497 kts | 130° |
| 2026-04-30 21:34 | 24.69420 | 80.05730 | 39012 ft | 498 kts | 130° |
| 2026-04-30 21:34 | 24.62756 | 80.14530 | 39006 ft | 500 kts | 130° |
| 2026-04-30 21:35 | 24.59070 | 80.19407 | 39004 ft | 499 kts | 130° |
| 2026-04-30 21:35 | 24.54633 | 80.25255 | 39003 ft | 497 kts | 130° |
| 2026-04-30 21:36 | 24.50214 | 80.31080 | 39002 ft | 496 kts | 130° |
| 2026-04-30 21:37 | 24.41367 | 80.42714 | 39011 ft | 497 kts | 130° |
| 2026-04-30 21:37 | 24.36927 | 80.48543 | 39008 ft | 498 kts | 130° |
| 2026-04-30 21:38 | 24.32475 | 80.54381 | 39006 ft | 499 kts | 130° |
| 2026-04-30 21:38 | 24.28014 | 80.60223 | 39010 ft | 499 kts | 130° |
| 2026-04-30 21:39 | 24.23574 | 80.66030 | 39011 ft | 499 kts | 130° |
| 2026-04-30 21:39 | 24.19114 | 80.71857 | 39005 ft | 498 kts | 130° |
| 2026-04-30 21:40 | 24.14667 | 80.77661 | 39003 ft | 497 kts | 130° |
| 2026-04-30 21:40 | 24.10214 | 80.83465 | 39020 ft | 497 kts | 130° |
| 2026-04-30 21:41 | 24.05789 | 80.89226 | 39008 ft | 497 kts | 130° |
| 2026-04-30 21:41 | 24.01339 | 80.95012 | 39005 ft | 496 kts | 130° |
| 2026-04-30 21:42 | 23.96897 | 81.00782 | 39012 ft | 496 kts | 130° |
| 2026-04-30 21:42 | 23.92443 | 81.06559 | 39006 ft | 497 kts | 130° |
| 2026-04-30 21:43 | 23.87974 | 81.12349 | 39008 ft | 499 kts | 130° |
| 2026-04-30 21:43 | 23.83495 | 81.18146 | 39007 ft | 499 kts | 130° |
| 2026-04-30 21:44 | 23.79018 | 81.23934 | 39008 ft | 498 kts | 130° |
| 2026-04-30 21:44 | 23.74549 | 81.29704 | 39013 ft | 497 kts | 130° |
| 2026-04-30 21:45 | 23.70109 | 81.35431 | 39004 ft | 497 kts | 130° |
| 2026-04-30 21:45 | 23.65646 | 81.41180 | 39004 ft | 496 kts | 130° |
| 2026-04-30 21:46 | 23.61181 | 81.46925 | 39002 ft | 497 kts | 130° |
| 2026-04-30 21:46 | 23.56704 | 81.52678 | 39005 ft | 498 kts | 130° |
| 2026-04-30 21:47 | 23.52218 | 81.58437 | 39007 ft | 499 kts | 130° |
| 2026-04-30 21:47 | 23.47727 | 81.64196 | 39011 ft | 498 kts | 130° |
| 2026-04-30 21:48 | 23.43237 | 81.69946 | 39007 ft | 498 kts | 130° |
| 2026-04-30 21:48 | 23.38779 | 81.75650 | 39002 ft | 498 kts | 130° |
| 2026-04-30 21:49 | 23.34285 | 81.81392 | 39003 ft | 497 kts | 130° |
| 2026-04-30 21:49 | 23.29800 | 81.87117 | 39008 ft | 497 kts | 130° |
| 2026-04-30 21:50 | 23.25309 | 81.92842 | 39005 ft | 497 kts | 130° |
| 2026-04-30 21:50 | 23.20821 | 81.98558 | 38999 ft | 497 kts | 130° |
| 2026-04-30 21:51 | 23.16326 | 82.04276 | 39005 ft | 497 kts | 130° |
| 2026-04-30 21:51 | 23.11827 | 82.09993 | 39005 ft | 498 kts | 130° |
| 2026-04-30 21:52 | 23.07335 | 82.15694 | 39007 ft | 499 kts | 130° |
| 2026-04-30 21:52 | 23.02944 | 82.21527 | 39001 ft | 499 kts | 130° |
| 2026-04-30 21:53 | 22.98510 | 82.27321 | 39003 ft | 498 kts | 129° |
| 2026-04-30 21:53 | 22.94135 | 82.33161 | 39002 ft | 498 kts | 129° |
| 2026-04-30 21:54 | 22.89727 | 82.38954 | 39002 ft | 497 kts | 129° |
| 2026-04-30 21:54 | 22.85350 | 82.44751 | 38997 ft | 496 kts | 129° |
| 2026-04-30 21:55 | 22.80957 | 82.50532 | 39005 ft | 497 kts | 129° |
| 2026-04-30 21:55 | 22.76585 | 82.56296 | 39003 ft | 498 kts | 129° |
| 2026-04-30 21:56 | 22.72172 | 82.62099 | 39006 ft | 499 kts | 129° |
| 2026-04-30 21:56 | 22.67762 | 82.67895 | 39006 ft | 498 kts | 129° |
| 2026-04-30 21:57 | 22.63351 | 82.73685 | 39004 ft | 497 kts | 129° |
| 2026-04-30 21:57 | 22.58943 | 82.79464 | 39002 ft | 499 kts | 129° |
| 2026-04-30 21:58 | 22.54513 | 82.85267 | 39000 ft | 499 kts | 129° |
| 2026-04-30 21:58 | 22.50118 | 82.91017 | 39003 ft | 499 kts | 129° |
| 2026-04-30 21:59 | 22.45682 | 82.96813 | 39011 ft | 500 kts | 130° |
| 2026-04-30 22:00 | 22.39068 | 83.05445 | 39004 ft | 496 kts | 130° |
| 2026-04-30 22:00 | 22.32465 | 83.14049 | 39009 ft | 495 kts | 130° |
| 2026-04-30 22:01 | 22.28063 | 83.19775 | 38997 ft | 496 kts | 130° |
| 2026-04-30 22:01 | 22.23636 | 83.25529 | 39003 ft | 499 kts | 130° |
| 2026-04-30 22:02 | 22.19205 | 83.31281 | 39004 ft | 496 kts | 130° |
| 2026-04-30 22:02 | 22.14950 | 83.37072 | 39001 ft | 496 kts | 129° |
| 2026-04-30 22:03 | 22.10609 | 83.42878 | 39007 ft | 497 kts | 128° |
| 2026-04-30 22:03 | 22.06260 | 83.48678 | 39010 ft | 496 kts | 131° |
| 2026-04-30 22:04 | 22.01842 | 83.54400 | 39010 ft | 497 kts | 129° |
| 2026-04-30 22:05 | 21.95179 | 83.62908 | 39003 ft | 497 kts | 130° |
| 2026-04-30 22:05 | 21.90741 | 83.68625 | 39000 ft | 497 kts | 130° |
| 2026-04-30 22:06 | 21.86283 | 83.74309 | 39000 ft | 496 kts | 130° |
| 2026-04-30 22:06 | 21.79628 | 83.82819 | 38996 ft | 495 kts | 130° |
| 2026-04-30 22:07 | 21.75184 | 83.88484 | 39000 ft | 495 kts | 130° |
| 2026-04-30 22:07 | 21.70768 | 83.94114 | 38996 ft | 495 kts | 130° |
| 2026-04-30 22:08 | 21.66324 | 83.99774 | 38999 ft | 495 kts | 130° |
| 2026-04-30 22:08 | 21.61940 | 84.05510 | 39002 ft | 496 kts | 129° |
| 2026-04-30 22:09 | 21.57531 | 84.11218 | 38999 ft | 496 kts | 130° |
| 2026-04-30 22:09 | 21.53133 | 84.16926 | 38999 ft | 495 kts | 129° |
| 2026-04-30 22:10 | 21.48735 | 84.22624 | 39002 ft | 495 kts | 130° |
| 2026-04-30 22:10 | 21.44361 | 84.28283 | 39009 ft | 497 kts | 130° |
| 2026-04-30 22:11 | 21.37728 | 84.36856 | 38999 ft | 497 kts | 130° |
| 2026-04-30 22:12 | 21.33305 | 84.42566 | 39007 ft | 497 kts | 130° |
| 2026-04-30 22:12 | 21.28893 | 84.48255 | 39007 ft | 495 kts | 130° |
| 2026-04-30 22:13 | 21.24489 | 84.53928 | 39003 ft | 495 kts | 130° |
| 2026-04-30 22:13 | 21.20074 | 84.59610 | 38999 ft | 496 kts | 130° |
| 2026-04-30 22:14 | 21.15676 | 84.65262 | 39007 ft | 497 kts | 130° |
| 2026-04-30 22:14 | 21.11251 | 84.70945 | 39004 ft | 496 kts | 130° |
| 2026-04-30 22:15 | 21.06831 | 84.76615 | 39009 ft | 495 kts | 130° |
| 2026-04-30 22:15 | 21.02406 | 84.82286 | 39008 ft | 496 kts | 130° |
| 2026-04-30 22:16 | 20.97983 | 84.87949 | 39012 ft | 495 kts | 130° |
| 2026-04-30 22:17 | 20.89147 | 84.99244 | 39008 ft | 495 kts | 130° |
| 2026-04-30 22:17 | 20.82644 | 85.07541 | 39000 ft | 494 kts | 130° |
| 2026-04-30 22:18 | 20.76022 | 85.15980 | 39006 ft | 494 kts | 130° |
| 2026-04-30 22:19 | 20.71598 | 85.21609 | 39194 ft | 492 kts | 130° |
| 2026-04-30 22:19 | 20.69406 | 85.24397 | 39476 ft | 490 kts | 130° |
| 2026-04-30 22:19 | 20.65040 | 85.29945 | 39994 ft | 486 kts | 130° |
| 2026-04-30 22:20 | 20.62870 | 85.32700 | 40262 ft | 484 kts | 130° |
| 2026-04-30 22:20 | 20.58551 | 85.38180 | 40765 ft | 481 kts | 130° |
| 2026-04-30 22:20 | 20.56400 | 85.40907 | 40996 ft | 479 kts | 130° |
| 2026-04-30 22:21 | 20.52066 | 85.46398 | 40994 ft | 487 kts | 130° |
| 2026-04-30 22:21 | 20.47691 | 85.51937 | 40994 ft | 494 kts | 130° |
| 2026-04-30 22:22 | 20.43244 | 85.57559 | 41006 ft | 497 kts | 130° |
| 2026-04-30 22:22 | 20.38792 | 85.63184 | 41011 ft | 496 kts | 130° |
| 2026-04-30 22:23 | 20.34345 | 85.68796 | 41011 ft | 496 kts | 130° |
| 2026-04-30 22:23 | 20.29887 | 85.74416 | 41011 ft | 496 kts | 130° |
| 2026-04-30 22:24 | 20.26189 | 85.79075 | 41011 ft | 495 kts | 130° |
| 2026-04-30 22:24 | 20.21454 | 85.84379 | 41004 ft | 495 kts | 136° |
| 2026-04-30 22:25 | 20.16469 | 85.89442 | 41000 ft | 494 kts | 136° |
| 2026-04-30 22:25 | 20.11521 | 85.94543 | 41001 ft | 494 kts | 136° |
| 2026-04-30 22:26 | 20.04082 | 86.02145 | 41002 ft | 494 kts | 136° |
| 2026-04-30 22:27 | 19.99128 | 86.07216 | 41004 ft | 494 kts | 136° |
| 2026-04-30 22:27 | 19.91723 | 86.14788 | 41007 ft | 494 kts | 136° |
| 2026-04-30 22:28 | 19.84416 | 86.22492 | 41002 ft | 493 kts | 135° |
| 2026-04-30 22:29 | 19.74665 | 86.32750 | 41000 ft | 494 kts | 135° |
| 2026-04-30 22:31 | 19.57515 | 86.50734 | 41010 ft | 496 kts | 136° |
| 2026-04-30 22:32 | 19.45248 | 86.63481 | 41008 ft | 495 kts | 136° |
| 2026-04-30 22:33 | 19.32968 | 86.76217 | 41005 ft | 493 kts | 136° |
| 2026-04-30 22:35 | 19.20733 | 86.88879 | 41001 ft | 492 kts | 136° |
| 2026-04-30 22:36 | 19.08421 | 87.01591 | 41010 ft | 497 kts | 136° |
| 2026-04-30 22:37 | 18.98566 | 87.11745 | 41012 ft | 495 kts | 136° |
| 2026-04-30 22:38 | 18.88772 | 87.21821 | 41001 ft | 493 kts | 136° |
| 2026-04-30 22:39 | 18.81384 | 87.29409 | 41002 ft | 495 kts | 136° |
| 2026-04-30 22:40 | 18.66563 | 87.44602 | 41009 ft | 495 kts | 136° |
| 2026-04-30 22:41 | 18.54239 | 87.57206 | 41000 ft | 494 kts | 136° |
| 2026-04-30 22:43 | 18.39381 | 87.72366 | 41009 ft | 497 kts | 136° |
| 2026-04-30 22:44 | 18.29471 | 87.82456 | 41006 ft | 494 kts | 136° |
| 2026-04-30 22:45 | 18.14828 | 87.97615 | 41004 ft | 495 kts | 135° |
| 2026-04-30 22:47 | 18.00179 | 88.12779 | 41008 ft | 495 kts | 135° |
| 2026-04-30 22:48 | 17.90406 | 88.22866 | 41001 ft | 493 kts | 135° |
| 2026-04-30 22:49 | 17.75666 | 88.38053 | 41012 ft | 496 kts | 135° |
| 2026-04-30 22:51 | 17.60885 | 88.53244 | 41005 ft | 493 kts | 136° |
| 2026-04-30 22:52 | 17.53563 | 88.60756 | 40998 ft | 493 kts | 136° |
| 2026-04-30 22:53 | 17.43716 | 88.70845 | 41005 ft | 496 kts | 136° |
| 2026-04-30 22:53 | 17.36318 | 88.78413 | 41011 ft | 496 kts | 136° |
| 2026-04-30 22:55 | 17.24010 | 88.90984 | 41002 ft | 493 kts | 136° |
| 2026-04-30 22:56 | 17.14253 | 89.01036 | 41000 ft | 494 kts | 135° |
| 2026-04-30 22:57 | 17.02029 | 89.13710 | 41008 ft | 496 kts | 135° |
| 2026-04-30 22:58 | 16.92243 | 89.23833 | 41009 ft | 496 kts | 135° |
| 2026-04-30 22:59 | 16.77550 | 89.39006 | 41008 ft | 495 kts | 135° |